createdAt,value
2023-01-17T00:01:17.194Z,4.10
2023-01-17T00:04:03.119Z,4.43
2023-01-17T00:06:49.000Z,4.20
2023-01-17T00:09:34.882Z,4.32
2023-01-17T00:12:02.474Z,3.22
2023-01-17T00:14:29.566Z,4.22
2023-01-17T00:16:57.014Z,3.53
2023-01-17T00:19:43.322Z,3.65
2023-01-17T00:22:29.596Z,4.65
2023-01-17T00:25:15.599Z,3.90
2023-01-17T00:27:43.013Z,3.67
2023-01-17T00:30:10.677Z,3.50
2023-01-17T00:32:37.686Z,3.50
2023-01-17T00:35:04.934Z,3.55
2023-01-17T00:37:32.036Z,3.13
2023-01-17T00:39:59.192Z,3.78
2023-01-17T00:42:26.314Z,3.72
2023-01-17T00:45:11.806Z,4.00
2023-01-17T00:47:57.199Z,3.60
2023-01-17T00:50:42.878Z,4.00
2023-01-17T00:53:28.419Z,3.95
2023-01-17T00:56:14.403Z,4.03
2023-01-17T00:59:00.605Z,4.20
2023-01-17T01:01:46.270Z,4.22
2023-01-17T01:04:32.085Z,4.18
2023-01-17T01:07:17.867Z,4.45
2023-01-17T01:10:03.525Z,3.90
2023-01-17T01:12:49.450Z,4.22
2023-01-17T01:15:34.820Z,3.83
2023-01-17T01:18:27.751Z,3.95
2023-01-17T01:21:13.500Z,4.03
2023-01-17T01:23:59.196Z,3.50
2023-01-17T01:26:45.103Z,3.42
2023-01-17T01:29:30.947Z,3.95
2023-01-17T01:32:16.638Z,3.90
2023-01-17T01:34:43.786Z,3.20
2023-01-17T01:37:11.440Z,4.10
2023-01-17T01:39:38.988Z,4.18
2023-01-17T01:42:10.804Z,3.10
2023-01-17T01:44:41.035Z,3.55
2023-01-17T01:47:09.404Z,3.95
2023-01-17T01:49:36.965Z,3.28
2023-01-17T01:52:05.311Z,3.90
2023-01-17T01:54:39.007Z,3.03
2023-01-17T01:57:08.999Z,3.90
2023-01-17T01:59:38.213Z,3.63
2023-01-17T02:04:32.302Z,3.50
2023-01-17T02:07:02.276Z,4.28
2023-01-17T02:09:29.525Z,3.55
2023-01-17T02:11:56.643Z,3.42
2023-01-17T02:14:23.858Z,3.75
2023-01-17T02:17:03.809Z,4.07
2023-01-17T02:19:49.259Z,3.65
2023-01-17T02:22:28.893Z,3.85
2023-01-17T02:24:56.248Z,3.70
2023-01-17T02:27:28.024Z,3.45
2023-01-17T02:29:58.027Z,3.95
2023-01-17T02:32:37.132Z,3.92
2023-01-17T02:35:07.460Z,3.50
2023-01-17T02:37:40.201Z,4.20
2023-01-17T02:40:07.794Z,3.90
2023-01-17T02:42:38.659Z,3.97
2023-01-17T02:45:07.784Z,3.60
2023-01-17T02:50:09.807Z,3.65
2023-01-17T02:52:56.049Z,4.10
2023-01-17T02:55:23.575Z,3.75
2023-01-17T02:57:50.936Z,3.65
2023-01-17T03:00:38.697Z,4.00
2023-01-17T03:03:27.155Z,3.60
2023-01-17T03:05:58.029Z,3.60
2023-01-17T03:08:25.931Z,3.75
2023-01-17T03:10:53.254Z,3.83
2023-01-17T03:13:20.708Z,3.88
2023-01-17T03:15:48.229Z,4.72
2023-01-17T03:18:16.276Z,4.25
2023-01-17T03:20:43.493Z,4.10
2023-01-17T03:23:10.744Z,3.50
2023-01-17T03:25:37.844Z,4.32
2023-01-17T03:28:05.105Z,4.10
2023-01-17T03:30:32.289Z,3.67
2023-01-17T03:32:59.383Z,4.25
2023-01-17T03:35:28.249Z,3.80
2023-01-17T03:37:55.685Z,4.25
2023-01-17T03:40:22.840Z,4.15
2023-01-17T03:42:50.303Z,4.18
2023-01-17T03:45:17.618Z,4.10
2023-01-17T03:47:44.724Z,4.50
2023-01-17T03:50:12.385Z,4.10
2023-01-17T03:52:39.966Z,4.20
2023-01-17T03:55:07.551Z,4.13
2023-01-17T03:57:34.941Z,4.05
2023-01-17T04:00:04.499Z,3.60
2023-01-17T04:02:31.989Z,3.90
2023-01-17T04:04:59.140Z,3.90
2023-01-17T04:07:26.533Z,4.40
2023-01-17T04:09:54.641Z,4.10
2023-01-17T04:12:22.079Z,4.23
2023-01-17T04:14:49.236Z,4.10
2023-01-17T04:17:17.048Z,4.00
2023-01-17T04:19:44.451Z,4.10
2023-01-17T04:22:11.921Z,3.88
2023-01-17T04:24:39.049Z,4.28
2023-01-17T04:27:06.182Z,3.95
2023-01-17T04:29:33.432Z,4.90
2023-01-17T04:32:00.593Z,5.10
2023-01-17T04:34:27.831Z,5.50
2023-01-17T04:36:54.870Z,5.63
2023-01-17T04:39:22.089Z,6.30
2023-01-17T04:41:49.348Z,5.82
2023-01-17T04:44:16.445Z,5.35
2023-01-17T04:46:43.633Z,4.65
2023-01-17T04:49:10.744Z,4.90
2023-01-17T04:51:37.936Z,4.97
2023-01-17T04:54:05.072Z,4.93
2023-01-17T04:56:32.167Z,4.88
2023-01-17T04:58:59.378Z,4.90
2023-01-17T05:01:27.056Z,5.18
2023-01-17T05:03:54.353Z,4.72
2023-01-17T05:06:21.547Z,4.55
2023-01-17T05:08:49.110Z,5.28
2023-01-17T05:11:16.573Z,5.45
2023-01-17T05:13:43.976Z,5.15
2023-01-17T05:16:11.806Z,5.25
2023-01-17T05:18:39.219Z,5.65
2023-01-17T05:21:06.630Z,5.97
2023-01-17T05:23:33.746Z,5.97
2023-01-17T05:26:00.936Z,6.70
2023-01-17T05:28:28.399Z,7.35
2023-01-17T05:30:55.504Z,5.82
2023-01-17T05:33:22.928Z,7.03
2023-01-17T05:35:50.412Z,6.13
2023-01-17T05:38:18.295Z,7.70
2023-01-17T05:40:45.778Z,4.83
2023-01-17T05:43:12.950Z,6.65
2023-01-17T05:45:40.315Z,6.05
2023-01-17T05:48:07.918Z,6.10
2023-01-17T05:50:36.980Z,6.18
2023-01-17T05:55:31.554Z,6.30
2023-01-17T05:57:59.033Z,6.18
2023-01-17T06:00:26.467Z,6.60
2023-01-17T06:02:54.471Z,7.20
2023-01-17T06:05:22.205Z,7.05
2023-01-17T06:07:49.620Z,7.13
2023-01-17T06:10:17.939Z,6.95
2023-01-17T06:12:45.827Z,4.93
2023-01-17T06:15:13.905Z,6.57
2023-01-17T06:17:41.414Z,6.53
2023-01-17T06:20:09.359Z,6.68
2023-01-17T06:22:36.721Z,7.18
2023-01-17T06:25:04.250Z,6.88
2023-01-17T06:27:31.390Z,6.50
2023-01-17T06:29:58.575Z,6.45
2023-01-17T06:32:25.771Z,6.45
2023-01-17T06:34:52.941Z,7.15
2023-01-17T06:37:20.035Z,6.70
2023-01-17T06:39:47.362Z,7.22
2023-01-17T06:42:14.739Z,7.13
2023-01-17T06:44:41.971Z,6.78
2023-01-17T06:47:09.355Z,7.10
2023-01-17T06:49:36.573Z,6.88
2023-01-17T06:52:04.257Z,5.85
2023-01-17T06:54:31.609Z,6.35
2023-01-17T06:56:58.728Z,5.57
2023-01-17T06:59:25.889Z,6.20
2023-01-17T07:01:53.107Z,6.38
2023-01-17T07:04:20.428Z,6.00
2023-01-17T07:06:47.715Z,5.80
2023-01-17T07:09:15.088Z,5.82
2023-01-17T07:11:42.559Z,5.57
2023-01-17T07:14:13.683Z,6.95
2023-01-17T07:16:45.317Z,6.38
2023-01-17T07:19:12.867Z,6.25
2023-01-17T07:21:40.456Z,6.47
2023-01-17T07:24:08.025Z,5.85
2023-01-17T07:26:37.719Z,6.10
2023-01-17T07:29:05.228Z,6.63
2023-01-17T07:31:35.436Z,5.70
2023-01-17T07:34:03.258Z,5.90
2023-01-17T07:36:30.323Z,6.20
2023-01-17T07:38:59.017Z,4.88
2023-01-17T07:41:26.455Z,5.97
2023-01-17T07:43:56.250Z,7.05
2023-01-17T07:46:23.835Z,6.50
2023-01-17T07:48:51.015Z,6.50
2023-01-17T07:51:18.896Z,6.22
2023-01-17T07:53:46.133Z,6.18
2023-01-17T07:56:13.783Z,6.50
2023-01-17T07:58:41.187Z,5.93
2023-01-17T08:01:10.351Z,5.72
2023-01-17T08:03:40.364Z,5.65
2023-01-17T08:06:13.704Z,5.70
2023-01-17T08:08:41.276Z,6.30
2023-01-17T08:11:08.685Z,6.22
2023-01-17T08:13:36.145Z,5.85
2023-01-17T08:16:03.743Z,6.40
2023-01-17T08:18:30.934Z,6.38
2023-01-17T08:20:58.406Z,6.50
2023-01-17T08:23:26.099Z,6.60
2023-01-17T08:25:53.990Z,6.90
2023-01-17T08:28:21.587Z,6.82
2023-01-17T08:30:49.051Z,6.28
2023-01-17T08:33:16.251Z,6.07
2023-01-17T08:35:55.645Z,6.00
2023-01-17T08:38:23.849Z,6.18
2023-01-17T08:40:51.255Z,5.10
2023-01-17T08:43:18.767Z,5.63
2023-01-17T08:45:47.188Z,6.10
2023-01-17T08:48:17.129Z,5.97
2023-01-17T08:50:44.373Z,6.43
2023-01-17T08:53:11.639Z,6.00
2023-01-17T08:55:41.032Z,6.55
2023-01-17T08:58:08.385Z,5.78
2023-01-17T09:00:35.613Z,5.78
2023-01-17T09:03:03.835Z,4.38
2023-01-17T09:05:31.189Z,5.50
2023-01-17T09:07:58.292Z,5.35
2023-01-17T09:10:25.553Z,6.40
2023-01-17T09:12:52.966Z,5.50
2023-01-17T09:15:21.035Z,5.70
2023-01-17T09:17:48.308Z,6.53
2023-01-17T09:20:15.711Z,6.40
2023-01-17T09:22:44.588Z,5.93
2023-01-17T09:25:13.040Z,6.07
2023-01-17T09:27:44.955Z,6.28
2023-01-17T09:30:12.504Z,6.82
2023-01-17T09:32:39.796Z,6.20
2023-01-17T09:35:08.737Z,7.50
2023-01-17T09:37:35.845Z,6.60
2023-01-17T09:40:03.610Z,6.60
2023-01-17T09:42:35.900Z,6.07
2023-01-17T09:45:03.682Z,6.40
2023-01-17T09:47:31.222Z,6.00
2023-01-17T09:50:15.574Z,5.72
2023-01-17T09:52:43.919Z,5.30
2023-01-17T09:57:59.208Z,5.55
2023-01-17T10:00:35.635Z,5.55
2023-01-17T10:03:15.819Z,4.85
2023-01-17T10:05:43.475Z,4.93
2023-01-17T10:08:23.833Z,5.50
2023-01-17T10:10:51.622Z,4.43
2023-01-17T10:13:41.228Z,4.75
2023-01-17T10:16:08.749Z,5.07
2023-01-17T10:18:47.758Z,5.47
2023-01-17T10:21:20.970Z,4.82
2023-01-17T10:24:13.836Z,5.10
2023-01-17T10:26:42.045Z,4.80
2023-01-17T10:29:15.082Z,4.75
2023-01-17T10:31:51.173Z,4.85
2023-01-17T10:34:18.261Z,5.65
2023-01-17T10:36:48.618Z,5.80
2023-01-17T10:39:20.265Z,5.40
2023-01-17T10:41:55.193Z,5.40
2023-01-17T10:44:25.530Z,5.22
2023-01-17T10:46:56.755Z,5.20
2023-01-17T10:49:25.246Z,5.68
2023-01-17T10:52:11.311Z,5.45
2023-01-17T10:54:56.701Z,5.45
2023-01-17T10:57:26.549Z,5.13
2023-01-17T10:59:58.598Z,5.18
2023-01-17T11:02:33.414Z,5.30
2023-01-17T11:05:03.482Z,4.90
2023-01-17T11:07:31.136Z,4.88
2023-01-17T11:09:59.000Z,5.38
2023-01-17T11:12:33.367Z,5.13
2023-01-17T11:15:19.850Z,5.55
2023-01-17T11:17:53.226Z,5.03
2023-01-17T11:20:28.051Z,6.00
2023-01-17T11:23:21.294Z,5.78
2023-01-17T11:25:59.129Z,4.88
2023-01-17T11:28:31.642Z,5.40
2023-01-17T11:31:12.094Z,5.32
2023-01-17T11:33:46.916Z,5.15
2023-01-17T11:36:20.157Z,5.53
2023-01-17T11:39:04.562Z,5.43
2023-01-17T11:41:40.038Z,5.18
2023-01-17T11:44:24.346Z,6.35
2023-01-17T11:47:08.915Z,6.13
2023-01-17T11:49:37.694Z,5.30
2023-01-17T11:52:11.625Z,5.18
2023-01-17T11:54:40.405Z,5.45
2023-01-17T11:59:37.606Z,4.97
2023-01-17T12:02:21.107Z,5.22
2023-01-17T12:04:59.608Z,4.72
2023-01-17T12:07:38.422Z,5.00
2023-01-17T12:10:15.049Z,5.57
2023-01-17T12:13:00.712Z,5.00
2023-01-17T12:15:52.257Z,4.90
2023-01-17T12:18:33.577Z,4.93
2023-01-17T12:21:01.275Z,4.80
2023-01-17T12:23:31.440Z,5.43
2023-01-17T12:26:02.635Z,5.05
2023-01-17T12:28:49.449Z,5.10
2023-01-17T12:31:25.879Z,5.20
2023-01-17T12:33:55.801Z,5.10
2023-01-17T12:36:41.739Z,5.95
2023-01-17T12:39:11.885Z,7.40
2023-01-17T12:41:42.589Z,5.35
2023-01-17T12:44:13.814Z,5.65
2023-01-17T12:46:49.446Z,5.15
2023-01-17T12:49:24.896Z,4.90
2023-01-17T12:51:54.344Z,5.28
2023-01-17T12:54:21.884Z,5.20
2023-01-17T12:56:52.672Z,5.43
2023-01-17T12:59:27.785Z,4.97
2023-01-17T13:01:57.769Z,5.00
2023-01-17T13:04:33.219Z,4.80
2023-01-17T13:07:03.100Z,4.80
2023-01-17T13:09:33.804Z,4.57
2023-01-17T13:12:04.177Z,4.60
2023-01-17T13:14:32.750Z,5.10
2023-01-17T13:17:05.067Z,4.50
2023-01-17T13:19:47.577Z,4.80
2023-01-17T13:22:18.097Z,4.70
2023-01-17T13:24:49.244Z,5.25
2023-01-17T13:27:25.736Z,5.22
2023-01-17T13:30:05.105Z,5.07
2023-01-17T13:33:11.143Z,4.60
2023-01-17T13:35:47.745Z,4.70
2023-01-17T13:38:17.837Z,4.43
2023-01-17T13:40:54.484Z,4.57
2023-01-17T13:43:25.921Z,4.45
2023-01-17T13:45:57.550Z,4.20
2023-01-17T13:48:26.655Z,6.03
2023-01-17T13:53:28.991Z,3.83
2023-01-17T13:55:59.635Z,4.53
2023-01-17T13:58:50.625Z,5.18
2023-01-17T14:01:24.179Z,4.30
2023-01-17T14:03:51.999Z,4.47
2023-01-17T14:06:34.619Z,6.28
2023-01-17T14:09:03.542Z,4.25
2023-01-17T14:11:36.007Z,3.90
2023-01-17T14:14:21.787Z,4.07
2023-01-17T14:16:48.915Z,3.85
2023-01-17T14:19:26.530Z,3.33
2023-01-17T14:22:13.712Z,3.05
2023-01-17T14:25:01.839Z,3.63
2023-01-17T14:27:32.027Z,2.75
2023-01-17T14:30:00.202Z,3.75
2023-01-17T14:32:27.558Z,3.50
2023-01-17T14:34:54.856Z,3.95
2023-01-17T14:37:33.500Z,3.17
2023-01-17T14:40:01.085Z,3.20
2023-01-17T14:42:30.504Z,2.88
2023-01-17T14:44:57.666Z,2.90
2023-01-17T14:47:26.699Z,3.33
2023-01-17T14:52:23.852Z,3.00
2023-01-17T14:54:52.211Z,3.60
2023-01-17T14:57:25.668Z,3.30
2023-01-17T15:00:08.458Z,3.20
2023-01-17T15:02:39.754Z,3.13
2023-01-17T15:05:10.386Z,2.70
2023-01-17T15:07:38.090Z,3.30
2023-01-17T15:10:06.033Z,2.60
2023-01-17T15:12:36.305Z,2.38
2023-01-17T15:15:04.131Z,3.08
2023-01-17T15:17:31.737Z,2.78
2023-01-17T15:20:03.707Z,2.42
2023-01-17T15:22:31.219Z,2.65
2023-01-17T15:24:59.406Z,2.55
2023-01-17T15:27:27.082Z,2.65
2023-01-17T15:29:59.163Z,2.70
2023-01-17T15:32:31.520Z,12.27
2023-01-17T15:34:59.461Z,2.95
2023-01-17T15:37:30.999Z,2.80
2023-01-17T15:40:17.127Z,3.05
2023-01-17T15:42:45.082Z,3.13
2023-01-17T15:45:15.664Z,7.35
2023-01-17T15:47:42.937Z,3.75
2023-01-17T15:50:30.259Z,4.15
2023-01-17T15:53:02.015Z,6.57
2023-01-17T15:55:39.046Z,3.92
2023-01-17T15:58:23.078Z,4.93
2023-01-17T16:00:50.638Z,6.70
2023-01-17T16:03:22.373Z,16.80
2023-01-17T16:05:49.979Z,6.65
2023-01-17T16:08:23.651Z,5.13
2023-01-17T16:10:53.416Z,8.60
2023-01-17T16:13:21.284Z,5.13
2023-01-17T16:15:48.909Z,3.70
2023-01-17T16:18:21.899Z,4.20
2023-01-17T16:20:55.102Z,6.70
2023-01-17T16:23:22.212Z,6.53
2023-01-17T16:25:49.687Z,6.72
2023-01-17T16:28:17.236Z,7.35
2023-01-17T16:30:45.139Z,6.93
2023-01-17T16:33:13.433Z,7.13
2023-01-17T16:35:43.028Z,6.00
2023-01-17T16:38:11.960Z,8.20
2023-01-17T16:40:40.098Z,5.07
2023-01-17T16:43:07.525Z,6.63
2023-01-17T16:45:39.785Z,6.43
2023-01-17T16:48:07.146Z,6.07
2023-01-17T16:50:34.338Z,5.47
2023-01-17T16:53:01.462Z,4.50
2023-01-17T16:55:28.767Z,5.40
2023-01-17T16:57:57.445Z,4.75
2023-01-17T17:00:26.826Z,4.53
2023-01-17T17:02:54.556Z,6.20
2023-01-17T17:05:22.342Z,6.65
2023-01-17T17:07:52.748Z,6.57
2023-01-17T17:10:21.639Z,4.43
2023-01-17T17:15:17.184Z,5.70
2023-01-17T17:17:44.841Z,11.27
2023-01-17T17:20:13.907Z,7.65
2023-01-17T17:22:43.033Z,11.15
2023-01-17T17:27:37.263Z,9.40
2023-01-17T17:30:04.896Z,6.95
2023-01-17T17:32:32.579Z,4.05
2023-01-17T17:34:59.925Z,6.65
2023-01-17T17:37:30.815Z,7.07
2023-01-17T17:39:58.148Z,7.65
2023-01-17T17:42:25.615Z,4.20
2023-01-17T17:44:53.020Z,10.65
2023-01-17T17:47:20.471Z,8.57
2023-01-17T17:49:47.991Z,6.18
2023-01-17T17:52:15.434Z,7.22
2023-01-17T17:54:42.618Z,4.78
2023-01-17T17:57:10.077Z,3.90
2023-01-17T17:59:37.493Z,2.75
2023-01-17T18:02:10.719Z,5.22
2023-01-17T18:04:38.112Z,5.30
2023-01-17T18:07:05.479Z,4.93
2023-01-17T18:09:32.884Z,3.90
2023-01-17T18:12:00.107Z,3.50
2023-01-17T18:14:27.233Z,3.70
2023-01-17T18:16:54.749Z,5.68
2023-01-17T18:19:23.594Z,4.60
2023-01-17T18:21:52.116Z,5.72
2023-01-17T18:24:23.299Z,7.57
2023-01-17T18:26:51.443Z,6.95
2023-01-17T18:29:20.848Z,7.18
2023-01-17T18:31:50.182Z,7.30
2023-01-17T18:34:19.334Z,6.40
2023-01-17T18:36:47.202Z,5.18
2023-01-17T18:39:18.883Z,12.15
2023-01-17T18:41:46.823Z,9.85
2023-01-17T18:44:14.269Z,18.35
2023-01-17T18:46:42.159Z,11.27
2023-01-17T18:49:14.803Z,4.38
2023-01-17T18:51:46.463Z,5.97
2023-01-17T18:54:13.857Z,3.85
2023-01-17T18:56:42.408Z,5.00
2023-01-17T18:59:11.855Z,8.73
2023-01-17T19:01:42.223Z,11.20
2023-01-17T19:04:10.575Z,16.95
2023-01-17T19:06:39.366Z,9.45
2023-01-17T19:09:07.670Z,9.23
2023-01-17T19:11:36.248Z,5.32
2023-01-17T19:14:04.219Z,7.60
2023-01-17T19:16:33.018Z,5.03
2023-01-17T19:21:29.339Z,5.10
2023-01-17T19:23:57.462Z,17.00
2023-01-17T19:26:27.174Z,7.97
2023-01-17T19:28:56.055Z,10.02
2023-01-17T19:31:25.406Z,7.93
2023-01-17T19:33:54.567Z,6.95
2023-01-17T19:36:24.222Z,8.43
2023-01-17T19:39:03.533Z,9.07
2023-01-17T19:41:32.745Z,5.53
2023-01-17T19:44:01.227Z,5.83
2023-01-17T19:46:28.750Z,22.13
2023-01-17T19:48:57.518Z,20.77
2023-01-17T19:51:26.761Z,16.60
2023-01-17T19:53:55.035Z,4.90
2023-01-17T19:56:23.945Z,22.52
2023-01-17T19:58:52.104Z,8.38
2023-01-17T20:01:28.676Z,6.40
2023-01-17T20:03:57.922Z,21.15
2023-01-17T20:06:26.902Z,14.38
2023-01-17T20:08:54.498Z,10.88
2023-01-17T20:11:23.036Z,12.77
2023-01-17T20:13:55.069Z,9.68
2023-01-17T20:16:24.440Z,12.48
2023-01-17T20:18:52.328Z,15.35
2023-01-17T20:21:21.013Z,15.18
2023-01-17T20:23:50.037Z,12.23
2023-01-17T20:26:22.232Z,9.23
2023-01-17T20:28:51.401Z,13.60
2023-01-17T20:31:20.361Z,10.75
2023-01-17T20:33:50.337Z,8.95
2023-01-17T20:36:18.458Z,10.50
2023-01-17T20:38:46.305Z,6.82
2023-01-17T20:41:30.568Z,9.75
2023-01-17T20:43:59.286Z,24.92
2023-01-17T20:46:27.818Z,11.43
2023-01-17T20:48:56.512Z,9.40
2023-01-17T20:51:25.703Z,8.98
2023-01-17T20:53:54.318Z,12.77
2023-01-17T20:56:22.109Z,10.13
2023-01-17T20:58:51.647Z,8.52
2023-01-17T21:01:20.811Z,6.30
2023-01-17T21:03:51.186Z,7.00
2023-01-17T21:06:19.199Z,13.70
2023-01-17T21:08:47.261Z,8.93
2023-01-17T21:11:15.897Z,6.40
2023-01-17T21:13:43.377Z,7.93
2023-01-17T21:16:12.756Z,8.85
2023-01-17T21:18:40.121Z,15.88
2023-01-17T21:21:14.497Z,8.35
2023-01-17T21:23:42.411Z,10.80
2023-01-17T21:26:12.125Z,9.98
2023-01-17T21:28:40.662Z,8.10
2023-01-17T21:31:23.081Z,5.80
2023-01-17T21:33:51.960Z,7.50
2023-01-17T21:36:19.872Z,20.95
2023-01-17T21:38:48.046Z,15.70
2023-01-17T21:41:15.814Z,14.50
2023-01-17T21:43:43.199Z,19.40
2023-01-17T21:46:10.784Z,10.82
2023-01-17T21:48:39.515Z,8.57
2023-01-17T21:51:07.642Z,14.27
2023-01-17T21:53:38.739Z,13.13
2023-01-17T21:56:25.929Z,9.30
2023-01-17T21:58:55.130Z,9.95
2023-01-17T22:01:24.241Z,7.82
2023-01-17T22:03:55.409Z,6.43
2023-01-17T22:06:24.082Z,5.95
2023-01-17T22:08:51.508Z,7.95
2023-01-17T22:11:20.435Z,5.78
2023-01-17T22:13:48.078Z,7.63
2023-01-17T22:16:16.874Z,7.35
2023-01-17T22:18:44.977Z,9.13
2023-01-17T22:21:14.121Z,7.47
2023-01-17T22:23:45.626Z,5.63
2023-01-17T22:26:13.122Z,6.70
2023-01-17T22:28:40.851Z,5.90
2023-01-17T22:31:10.973Z,7.05
2023-01-17T22:33:39.369Z,6.45
2023-01-17T22:36:07.487Z,3.58
2023-01-17T22:38:34.907Z,4.77
2023-01-17T22:41:07.720Z,5.43
2023-01-17T22:43:36.309Z,4.65
2023-01-17T22:46:04.670Z,7.22
2023-01-17T22:48:33.335Z,3.75
2023-01-17T22:51:02.368Z,3.83
2023-01-17T22:53:29.963Z,3.80
2023-01-17T22:56:00.793Z,4.82
2023-01-17T22:58:28.852Z,5.00
2023-01-17T23:01:02.806Z,4.15
2023-01-17T23:03:30.020Z,4.20
2023-01-17T23:05:57.411Z,5.03
2023-01-17T23:08:24.728Z,6.15
2023-01-17T23:11:11.155Z,7.55
2023-01-17T23:13:38.555Z,4.45
2023-01-17T23:16:24.455Z,9.10
2023-01-17T23:19:09.970Z,7.45
2023-01-17T23:21:55.527Z,11.45
2023-01-17T23:24:22.709Z,7.85
2023-01-17T23:27:08.470Z,12.35
2023-01-17T23:29:35.921Z,7.90
2023-01-17T23:32:03.418Z,4.70
2023-01-17T23:34:30.761Z,5.15
2023-01-17T23:36:58.200Z,5.07
2023-01-17T23:39:27.946Z,3.72
2023-01-17T23:42:14.761Z,7.93
2023-01-17T23:44:41.908Z,4.78
2023-01-17T23:47:09.034Z,5.30
2023-01-17T23:49:36.276Z,5.63
2023-01-17T23:52:05.260Z,5.45
2023-01-17T23:54:32.491Z,4.50
2023-01-17T23:56:59.880Z,4.97
2023-01-17T23:59:27.718Z,4.40
